createdAt,value
2022-09-16T00:01:51.825Z,6.43
2022-09-16T00:04:18.322Z,7.63
2022-09-16T00:06:44.761Z,6.83
2022-09-16T00:09:11.192Z,6.60
2022-09-16T00:11:37.835Z,6.70
2022-09-16T00:14:04.912Z,6.87
2022-09-16T00:16:32.461Z,6.80
2022-09-16T00:19:00.736Z,6.47
2022-09-16T00:21:28.215Z,6.07
2022-09-16T00:23:55.951Z,6.43
2022-09-16T00:26:23.168Z,6.23
2022-09-16T00:28:50.710Z,7.17
2022-09-16T00:31:17.886Z,6.33
2022-09-16T00:33:44.451Z,6.20
2022-09-16T00:36:16.005Z,6.40
2022-09-16T00:38:42.591Z,6.10
2022-09-16T00:41:14.937Z,6.20
2022-09-16T00:43:53.571Z,6.43
2022-09-16T00:46:25.048Z,5.47
2022-09-16T00:48:51.552Z,5.93
2022-09-16T00:51:18.211Z,6.03
2022-09-16T00:53:49.640Z,6.23
2022-09-16T00:56:18.271Z,6.13
2022-09-16T00:58:48.796Z,6.13
2022-09-16T01:01:15.411Z,5.50
2022-09-16T01:03:55.728Z,6.07
2022-09-16T01:06:23.479Z,5.90
2022-09-16T01:08:50.661Z,6.20
2022-09-16T01:11:17.431Z,5.63
2022-09-16T01:13:44.533Z,5.80
2022-09-16T01:16:32.936Z,6.03
2022-09-16T01:19:15.884Z,5.43
2022-09-16T01:21:50.425Z,5.67
2022-09-16T01:24:41.907Z,6.20
2022-09-16T01:27:21.033Z,5.47
2022-09-16T01:30:13.825Z,5.43
2022-09-16T01:33:04.854Z,5.43
2022-09-16T01:36:02.109Z,4.97
2022-09-16T01:38:54.385Z,4.83
2022-09-16T01:42:02.700Z,4.93
2022-09-16T01:44:46.069Z,4.90
2022-09-16T01:47:21.903Z,5.33
2022-09-16T01:50:03.099Z,4.70
2022-09-16T01:52:29.440Z,5.07
2022-09-16T01:55:01.771Z,4.73
2022-09-16T01:57:41.356Z,4.90
2022-09-16T02:00:14.036Z,4.67
2022-09-16T02:02:42.072Z,4.07
2022-09-16T02:05:13.681Z,4.57
2022-09-16T02:07:43.909Z,4.37
2022-09-16T02:10:23.106Z,3.80
2022-09-16T02:12:50.519Z,4.30
2022-09-16T02:15:22.125Z,4.10
2022-09-16T02:17:56.747Z,4.30
2022-09-16T02:20:27.627Z,3.97
2022-09-16T02:22:59.191Z,4.33
2022-09-16T02:25:26.709Z,4.40
2022-09-16T02:27:53.794Z,4.03
2022-09-16T02:30:21.934Z,4.27
2022-09-16T02:32:56.192Z,3.90
2022-09-16T02:35:24.383Z,4.10
2022-09-16T02:38:23.028Z,3.87
2022-09-16T02:40:57.440Z,4.37
2022-09-16T02:43:24.520Z,4.00
2022-09-16T02:45:59.820Z,4.87
2022-09-16T02:48:40.019Z,4.13
2022-09-16T02:51:42.287Z,4.53
2022-09-16T02:54:22.585Z,4.20
2022-09-16T02:56:49.157Z,4.70
2022-09-16T02:59:17.313Z,3.80
2022-09-16T03:01:46.231Z,4.90
2022-09-16T03:04:14.691Z,4.70
2022-09-16T03:06:41.384Z,4.20
2022-09-16T03:09:13.024Z,4.77
2022-09-16T03:11:59.195Z,4.60
2022-09-16T03:14:53.097Z,5.00
2022-09-16T03:17:40.708Z,4.60
2022-09-16T03:20:26.453Z,4.77
2022-09-16T03:23:26.809Z,4.83
2022-09-16T03:25:58.377Z,4.57
2022-09-16T03:28:28.766Z,5.50
2022-09-16T03:31:07.342Z,4.90
2022-09-16T03:33:47.473Z,5.07
2022-09-16T03:36:15.943Z,5.37
2022-09-16T03:38:43.117Z,4.70
2022-09-16T03:41:10.236Z,4.70
2022-09-16T03:43:36.666Z,5.03
2022-09-16T03:46:03.414Z,5.07
2022-09-16T03:48:29.869Z,5.23
2022-09-16T03:50:56.310Z,4.70
2022-09-16T03:53:22.726Z,5.43
2022-09-16T03:55:50.202Z,5.80
2022-09-16T03:58:16.919Z,5.60
2022-09-16T04:00:43.353Z,5.27
2022-09-16T04:03:09.757Z,5.20
2022-09-16T04:05:36.194Z,4.80
2022-09-16T04:08:02.757Z,5.50
2022-09-16T04:10:29.760Z,5.23
2022-09-16T04:12:59.016Z,5.40
2022-09-16T04:15:25.471Z,5.70
2022-09-16T04:17:52.159Z,5.30
2022-09-16T04:20:18.632Z,5.53
2022-09-16T04:22:45.306Z,5.50
2022-09-16T04:25:11.899Z,5.77
2022-09-16T04:27:38.409Z,5.57
2022-09-16T04:30:05.284Z,5.60
2022-09-16T04:32:32.854Z,6.27
2022-09-16T04:34:59.576Z,6.27
2022-09-16T04:37:26.067Z,5.70
2022-09-16T04:39:53.394Z,6.40
2022-09-16T04:42:20.024Z,6.17
2022-09-16T04:44:46.444Z,5.77
2022-09-16T04:47:13.138Z,6.13
2022-09-16T04:49:39.608Z,5.37
2022-09-16T04:52:06.103Z,5.63
2022-09-16T04:54:32.784Z,5.63
2022-09-16T04:56:59.318Z,5.37
2022-09-16T04:59:25.772Z,5.70
2022-09-16T05:01:52.415Z,5.70
2022-09-16T05:04:19.032Z,5.63
2022-09-16T05:06:45.593Z,4.93
2022-09-16T05:09:12.519Z,5.20
2022-09-16T05:11:40.321Z,5.00
2022-09-16T05:14:09.980Z,4.80
2022-09-16T05:16:36.437Z,4.30
2022-09-16T05:19:06.283Z,4.57
2022-09-16T05:21:35.344Z,4.83
2022-09-16T05:24:03.606Z,4.33
2022-09-16T05:26:31.959Z,4.57
2022-09-16T05:29:05.839Z,4.20
2022-09-16T05:31:34.427Z,3.93
2022-09-16T05:34:13.643Z,4.10
2022-09-16T05:36:43.194Z,3.57
2022-09-16T05:39:22.755Z,4.37
2022-09-16T05:41:53.380Z,3.50
2022-09-16T05:44:19.907Z,3.80
2022-09-16T05:46:46.330Z,3.43
2022-09-16T05:49:12.789Z,3.50
2022-09-16T05:51:41.282Z,3.27
2022-09-16T05:54:07.941Z,3.87
2022-09-16T05:56:34.439Z,3.93
2022-09-16T05:59:01.485Z,3.73
2022-09-16T06:01:33.089Z,3.87
2022-09-16T06:04:04.550Z,3.57
2022-09-16T06:06:32.444Z,3.63
2022-09-16T06:09:00.702Z,3.77
2022-09-16T06:11:28.237Z,3.50
2022-09-16T06:14:00.113Z,3.50
2022-09-16T06:16:28.121Z,3.10
2022-09-16T06:18:55.835Z,3.40
2022-09-16T06:21:23.093Z,3.23
2022-09-16T06:23:49.937Z,3.07
2022-09-16T06:26:19.155Z,3.17
2022-09-16T06:28:46.816Z,3.17
2022-09-16T06:31:15.262Z,3.30
2022-09-16T06:33:42.099Z,3.30
2022-09-16T06:36:13.794Z,3.13
2022-09-16T06:38:40.805Z,3.23
2022-09-16T06:41:09.227Z,2.57
2022-09-16T06:43:36.386Z,2.63
2022-09-16T06:46:10.293Z,2.93
2022-09-16T06:48:36.764Z,3.10
2022-09-16T06:51:06.977Z,2.30
2022-09-16T06:53:33.665Z,2.90
2022-09-16T06:56:01.872Z,2.70
2022-09-16T06:58:32.115Z,2.80
2022-09-16T07:00:58.725Z,2.40
2022-09-16T07:03:25.391Z,2.30
2022-09-16T07:06:00.214Z,2.60
2022-09-16T07:08:28.704Z,2.20
2022-09-16T07:11:04.072Z,2.20
2022-09-16T07:13:31.185Z,1.90
2022-09-16T07:16:12.857Z,2.27
2022-09-16T07:18:40.153Z,1.90
2022-09-16T07:21:18.561Z,1.90
2022-09-16T07:23:45.905Z,2.00
2022-09-16T07:26:21.297Z,1.93
2022-09-16T07:28:49.112Z,1.47
2022-09-16T07:31:18.992Z,1.70
2022-09-16T07:33:48.771Z,1.70
2022-09-16T07:36:20.932Z,1.70
2022-09-16T07:38:47.988Z,1.60
2022-09-16T07:41:16.590Z,1.77
2022-09-16T07:43:43.733Z,1.63
2022-09-16T07:46:12.403Z,1.63
2022-09-16T07:48:39.314Z,1.47
2022-09-16T07:51:09.298Z,1.60
2022-09-16T07:53:36.643Z,2.00
2022-09-16T07:56:11.624Z,1.60
2022-09-16T07:58:41.240Z,1.43
2022-09-16T08:01:08.381Z,1.77
2022-09-16T08:03:36.148Z,1.70
2022-09-16T08:06:12.953Z,1.67
2022-09-16T08:08:40.071Z,1.50
2022-09-16T08:11:07.809Z,1.70
2022-09-16T08:13:38.483Z,1.47
2022-09-16T08:16:13.285Z,1.50
2022-09-16T08:18:40.093Z,1.83
2022-09-16T08:21:15.572Z,1.47
2022-09-16T08:23:42.619Z,1.20
2022-09-16T08:26:14.104Z,2.33
2022-09-16T08:28:50.872Z,1.67
2022-09-16T08:31:24.366Z,1.37
2022-09-16T08:33:51.074Z,1.60
2022-09-16T08:36:21.147Z,1.50
2022-09-16T08:38:50.157Z,1.33
2022-09-16T08:41:55.318Z,1.70
2022-09-16T08:44:33.551Z,1.57
2022-09-16T08:47:03.062Z,1.40
2022-09-16T08:49:36.257Z,1.83
2022-09-16T08:52:12.315Z,2.27
2022-09-16T08:54:46.521Z,1.37
2022-09-16T08:57:20.851Z,1.13
2022-09-16T09:00:11.265Z,1.80
2022-09-16T09:02:47.808Z,1.57
2022-09-16T09:05:19.387Z,1.47
2022-09-16T09:08:10.250Z,1.60
2022-09-16T09:10:42.520Z,1.50
2022-09-16T09:13:38.688Z,1.30
2022-09-16T09:16:16.695Z,1.60
2022-09-16T09:18:59.616Z,1.77
2022-09-16T09:21:49.063Z,1.80
2022-09-16T09:24:48.425Z,1.60
2022-09-16T09:27:42.040Z,1.50
2022-09-16T09:30:21.222Z,1.60
2022-09-16T09:33:03.564Z,1.57
2022-09-16T09:35:48.022Z,1.33
2022-09-16T09:38:32.994Z,1.30
2022-09-16T09:41:49.100Z,1.20
2022-09-16T09:44:38.056Z,1.87
2022-09-16T09:47:10.774Z,1.73
2022-09-16T09:49:50.538Z,1.50
2022-09-16T09:52:29.073Z,1.27
2022-09-16T09:54:55.781Z,0.97
2022-09-16T09:57:31.197Z,0.97
2022-09-16T10:00:14.652Z,1.70
2022-09-16T10:02:47.452Z,1.10
2022-09-16T10:05:26.207Z,1.07
2022-09-16T10:07:55.563Z,1.00
2022-09-16T10:10:24.465Z,1.20
2022-09-16T10:12:51.702Z,1.50
2022-09-16T10:15:36.488Z,1.47
2022-09-16T10:18:12.110Z,1.37
2022-09-16T10:20:41.207Z,1.63
2022-09-16T10:23:15.457Z,1.27
2022-09-16T10:25:42.722Z,1.30
2022-09-16T10:28:21.001Z,1.40
2022-09-16T10:30:58.872Z,1.40
2022-09-16T10:33:32.213Z,1.10
2022-09-16T10:36:10.715Z,1.37
2022-09-16T10:38:42.147Z,1.63
2022-09-16T10:41:26.172Z,1.47
2022-09-16T10:43:55.165Z,1.20
2022-09-16T10:46:21.948Z,1.60
2022-09-16T10:48:49.960Z,0.90
2022-09-16T10:51:27.847Z,1.20
2022-09-16T10:53:59.601Z,0.90
2022-09-16T10:56:29.567Z,1.10
2022-09-16T10:59:06.654Z,1.47
2022-09-16T11:01:52.372Z,1.20
2022-09-16T11:04:58.500Z,0.90
2022-09-16T11:07:40.107Z,1.07
2022-09-16T11:10:15.724Z,0.70
2022-09-16T11:12:58.949Z,1.10
2022-09-16T11:15:47.155Z,0.80
2022-09-16T11:18:50.769Z,0.80
2022-09-16T11:21:44.210Z,0.97
2022-09-16T11:24:20.574Z,0.70
2022-09-16T11:27:19.622Z,1.40
2022-09-16T11:30:15.666Z,0.70
2022-09-16T11:33:06.791Z,0.80
2022-09-16T11:35:56.598Z,0.80
2022-09-16T11:38:46.163Z,0.70
2022-09-16T11:41:32.523Z,0.87
2022-09-16T11:44:20.627Z,0.60
2022-09-16T11:47:05.270Z,0.90
2022-09-16T11:50:10.474Z,0.80
2022-09-16T11:53:05.833Z,0.80
2022-09-16T11:55:54.011Z,1.00
2022-09-16T11:58:39.521Z,0.80
2022-09-16T12:01:22.333Z,0.97
2022-09-16T12:04:00.081Z,0.93
2022-09-16T12:06:31.473Z,0.80
2022-09-16T12:09:07.754Z,1.27
2022-09-16T12:11:44.729Z,0.97
2022-09-16T12:14:20.882Z,1.00
2022-09-16T12:16:51.668Z,0.90
2022-09-16T12:19:22.777Z,1.20
2022-09-16T12:21:58.017Z,0.70
2022-09-16T12:24:33.189Z,1.27
2022-09-16T12:27:27.839Z,0.60
2022-09-16T12:30:02.191Z,0.97
2022-09-16T12:32:41.481Z,1.00
2022-09-16T12:35:15.489Z,1.00
2022-09-16T12:37:49.677Z,0.90
2022-09-16T12:40:56.066Z,1.03
2022-09-16T12:43:37.710Z,0.73
2022-09-16T12:46:25.595Z,1.10
2022-09-16T12:49:31.040Z,1.63
2022-09-16T12:52:09.841Z,0.80
2022-09-16T12:55:06.784Z,0.93
2022-09-16T12:57:44.248Z,1.30
2022-09-16T13:00:52.671Z,1.03
2022-09-16T13:03:22.050Z,1.27
2022-09-16T13:05:51.202Z,1.00
2022-09-16T13:08:22.508Z,1.03
2022-09-16T13:11:12.132Z,1.30
2022-09-16T13:13:48.682Z,1.00
2022-09-16T13:16:15.392Z,0.90
2022-09-16T13:19:04.639Z,0.90
2022-09-16T13:21:47.323Z,0.80
2022-09-16T13:24:32.363Z,1.67
2022-09-16T13:26:58.941Z,1.40
2022-09-16T13:29:37.924Z,0.80
2022-09-16T13:32:05.854Z,1.20
2022-09-16T13:34:32.747Z,0.90
2022-09-16T13:36:59.334Z,1.10
2022-09-16T13:39:32.644Z,1.10
2022-09-16T13:42:17.826Z,0.80
2022-09-16T13:44:44.719Z,0.73
2022-09-16T13:47:11.164Z,0.90
2022-09-16T13:49:54.757Z,1.10
2022-09-16T13:52:33.636Z,0.90
2022-09-16T13:55:10.838Z,0.90
2022-09-16T13:58:03.926Z,0.70
2022-09-16T14:00:51.473Z,0.90
2022-09-16T14:03:24.437Z,0.90
2022-09-16T14:06:12.479Z,0.93
2022-09-16T14:08:52.313Z,1.10
2022-09-16T14:11:25.513Z,0.87
2022-09-16T14:14:05.188Z,0.93
2022-09-16T14:16:35.165Z,1.10
2022-09-16T14:19:13.082Z,1.10
2022-09-16T14:21:39.624Z,1.20
2022-09-16T14:24:18.573Z,0.90
2022-09-16T14:26:56.826Z,1.27
2022-09-16T14:29:24.773Z,0.90
2022-09-16T14:31:53.624Z,0.80
2022-09-16T14:34:26.464Z,0.70
2022-09-16T14:36:53.147Z,0.90
2022-09-16T14:39:22.341Z,1.10
2022-09-16T14:41:50.118Z,1.20
2022-09-16T14:44:24.716Z,0.97
2022-09-16T14:47:04.846Z,0.93
2022-09-16T14:49:37.284Z,1.10
2022-09-16T14:52:04.097Z,1.00
2022-09-16T14:54:32.309Z,1.53
2022-09-16T14:57:06.906Z,1.33
2022-09-16T14:59:38.998Z,1.30
2022-09-16T15:02:40.849Z,1.00
2022-09-16T15:05:38.123Z,1.20
2022-09-16T15:08:17.741Z,0.87
2022-09-16T15:10:53.403Z,1.03
2022-09-16T15:13:22.387Z,1.57
2022-09-16T15:15:56.248Z,1.00
2022-09-16T15:18:34.272Z,1.10
2022-09-16T15:21:11.283Z,1.13
2022-09-16T15:23:40.123Z,1.20
2022-09-16T15:26:19.427Z,1.00
2022-09-16T15:29:02.143Z,1.00
2022-09-16T15:31:32.223Z,1.50
2022-09-16T15:34:00.713Z,1.27
2022-09-16T15:36:41.287Z,1.50
2022-09-16T15:39:24.284Z,1.50
2022-09-16T15:42:24.095Z,1.30
2022-09-16T15:44:58.440Z,1.20
2022-09-16T15:47:27.224Z,1.10
2022-09-16T15:49:59.848Z,1.13
2022-09-16T15:52:26.706Z,1.23
2022-09-16T15:56:02.697Z,0.90
2022-09-16T15:58:34.412Z,0.83
2022-09-16T16:01:04.046Z,1.03
2022-09-16T16:03:45.767Z,0.83
2022-09-16T16:06:12.343Z,1.00
2022-09-16T16:08:45.588Z,1.20
2022-09-16T16:11:18.069Z,1.00
2022-09-16T16:13:44.606Z,1.20
2022-09-16T16:16:13.002Z,1.40
2022-09-16T16:18:39.801Z,1.10
2022-09-16T16:21:12.014Z,1.00
2022-09-16T16:23:38.569Z,1.37
2022-09-16T16:26:06.244Z,1.60
2022-09-16T16:28:33.363Z,1.70
2022-09-16T16:31:15.003Z,2.30
2022-09-16T16:33:45.537Z,1.87
2022-09-16T16:36:17.379Z,1.70
2022-09-16T16:38:45.622Z,1.60
2022-09-16T16:41:13.623Z,1.30
2022-09-16T16:43:40.549Z,1.60
2022-09-16T16:46:07.388Z,1.50
2022-09-16T16:48:34.388Z,1.50
2022-09-16T16:51:06.302Z,1.77
2022-09-16T16:53:33.094Z,1.60
2022-09-16T16:56:26.160Z,1.77
2022-09-16T16:58:54.303Z,2.87
2022-09-16T17:01:20.918Z,4.13
2022-09-16T17:03:49.731Z,2.43
2022-09-16T17:06:17.578Z,2.63
2022-09-16T17:08:44.068Z,2.30
2022-09-16T17:11:16.221Z,2.00
2022-09-16T17:13:44.333Z,2.10
2022-09-16T17:16:12.088Z,2.07
2022-09-16T17:18:40.149Z,2.03
2022-09-16T17:21:09.205Z,1.60
2022-09-16T17:23:35.754Z,1.90
2022-09-16T17:26:02.694Z,2.80
2022-09-16T17:28:29.680Z,2.63
2022-09-16T17:30:56.387Z,2.50
2022-09-16T17:33:23.198Z,1.90
2022-09-16T17:36:06.366Z,2.20
2022-09-16T17:38:33.749Z,2.50
2022-09-16T17:41:02.661Z,2.27
2022-09-16T17:43:32.278Z,2.80
2022-09-16T17:46:02.810Z,3.13
2022-09-16T17:48:30.065Z,3.27
2022-09-16T17:50:56.874Z,3.60
2022-09-16T17:53:24.080Z,3.30
2022-09-16T17:55:51.164Z,2.83
2022-09-16T17:58:17.990Z,3.47
2022-09-16T18:00:44.868Z,3.07
2022-09-16T18:03:12.274Z,3.47
2022-09-16T18:05:39.236Z,3.27
2022-09-16T18:08:05.733Z,3.33
2022-09-16T18:10:32.702Z,2.83
2022-09-16T18:12:59.258Z,3.07
2022-09-16T18:15:25.951Z,3.20
2022-09-16T18:17:55.699Z,2.80
2022-09-16T18:20:23.272Z,3.07
2022-09-16T18:22:49.744Z,3.33
2022-09-16T18:25:16.312Z,2.93
2022-09-16T18:27:44.329Z,2.60
2022-09-16T18:30:11.462Z,3.07
2022-09-16T18:32:37.903Z,2.90
2022-09-16T18:35:04.721Z,3.33
2022-09-16T18:37:32.100Z,3.13
2022-09-16T18:39:58.531Z,3.30
2022-09-16T18:42:25.135Z,2.93
2022-09-16T18:44:51.992Z,3.33
2022-09-16T18:47:18.460Z,2.77
2022-09-16T18:49:44.882Z,3.07
2022-09-16T18:52:11.305Z,3.23
2022-09-16T18:54:37.926Z,3.37
2022-09-16T18:57:04.495Z,3.00
2022-09-16T18:59:32.894Z,3.57
2022-09-16T19:02:01.163Z,3.33
2022-09-16T19:04:29.974Z,2.67
2022-09-16T19:06:59.355Z,3.10
2022-09-16T19:09:26.261Z,2.90
2022-09-16T19:11:54.330Z,2.80
2022-09-16T19:14:24.457Z,2.93
2022-09-16T19:16:53.692Z,2.77
2022-09-16T19:19:20.705Z,2.90
2022-09-16T19:21:47.464Z,2.90
2022-09-16T19:24:24.736Z,3.07
2022-09-16T19:26:53.352Z,3.10
2022-09-16T19:29:20.524Z,3.23
2022-09-16T19:31:48.591Z,3.47
2022-09-16T19:34:16.384Z,3.33
2022-09-16T19:36:43.023Z,2.90
2022-09-16T19:39:10.203Z,3.60
2022-09-16T19:41:38.152Z,3.73
2022-09-16T19:44:07.164Z,3.60
2022-09-16T19:46:36.077Z,5.70
2022-09-16T19:49:06.012Z,4.60
2022-09-16T19:51:33.157Z,3.50
2022-09-16T19:54:00.819Z,4.70
2022-09-16T19:56:31.226Z,5.07
2022-09-16T19:58:57.828Z,4.50
2022-09-16T20:01:26.618Z,3.60
2022-09-16T20:03:53.925Z,3.17
2022-09-16T20:06:22.818Z,3.30
2022-09-16T20:08:53.563Z,3.43
2022-09-16T20:11:22.206Z,3.20
2022-09-16T20:13:49.597Z,3.37
2022-09-16T20:16:16.599Z,3.47
2022-09-16T20:18:43.100Z,2.87
2022-09-16T20:21:12.180Z,2.73
2022-09-16T20:23:40.190Z,3.10
2022-09-16T20:26:08.776Z,3.53
2022-09-16T20:28:43.150Z,3.27
2022-09-16T20:31:11.805Z,3.20
2022-09-16T20:33:38.717Z,3.03
2022-09-16T20:36:11.641Z,3.40
2022-09-16T20:38:39.240Z,3.40
2022-09-16T20:41:12.961Z,3.50
2022-09-16T20:43:40.198Z,3.17
2022-09-16T20:46:12.113Z,3.37
2022-09-16T20:48:39.632Z,2.87
2022-09-16T20:51:14.310Z,2.77
2022-09-16T20:53:41.597Z,2.93
2022-09-16T20:56:15.110Z,3.40
2022-09-16T20:58:42.530Z,3.13
2022-09-16T21:01:15.052Z,2.80
2022-09-16T21:03:42.582Z,2.83
2022-09-16T21:06:11.167Z,2.93
2022-09-16T21:08:37.787Z,2.40
2022-09-16T21:11:11.558Z,2.60
2022-09-16T21:13:40.579Z,2.70
2022-09-16T21:16:07.792Z,2.70
2022-09-16T21:18:34.307Z,2.63
2022-09-16T21:21:01.761Z,2.80
2022-09-16T21:23:29.051Z,2.50
2022-09-16T21:25:56.459Z,2.77
2022-09-16T21:28:23.415Z,2.77
2022-09-16T21:30:58.852Z,2.43
2022-09-16T21:33:27.405Z,3.10
2022-09-16T21:35:54.601Z,3.03
2022-09-16T21:38:22.121Z,2.40
2022-09-16T21:40:56.741Z,2.60
2022-09-16T21:43:24.851Z,2.33
2022-09-16T21:45:51.485Z,2.70
2022-09-16T21:48:19.368Z,2.60
2022-09-16T21:50:47.524Z,2.70
2022-09-16T21:53:14.551Z,2.60
2022-09-16T21:55:41.553Z,2.53
2022-09-16T21:58:08.861Z,2.93
2022-09-16T22:00:36.627Z,2.90
2022-09-16T22:03:03.208Z,2.73
2022-09-16T22:05:30.571Z,3.63
2022-09-16T22:07:59.447Z,3.40
2022-09-16T22:10:25.973Z,3.30
2022-09-16T22:12:52.419Z,3.23
2022-09-16T22:15:19.052Z,3.90
2022-09-16T22:17:48.884Z,3.47
2022-09-16T22:20:17.853Z,3.77
2022-09-16T22:22:44.321Z,4.10
2022-09-16T22:25:10.792Z,3.97
2022-09-16T22:27:37.225Z,3.70
2022-09-16T22:30:04.492Z,3.40
2022-09-16T22:32:31.079Z,3.47
2022-09-16T22:34:57.503Z,3.53
2022-09-16T22:37:23.939Z,3.57
2022-09-16T22:39:51.262Z,3.53
2022-09-16T22:42:17.815Z,4.00
2022-09-16T22:44:44.228Z,3.47
2022-09-16T22:47:11.813Z,3.43
2022-09-16T22:49:38.299Z,3.53
2022-09-16T22:52:04.704Z,3.10
2022-09-16T22:54:31.999Z,3.40
2022-09-16T22:56:58.434Z,3.47
2022-09-16T22:59:24.848Z,3.73
2022-09-16T23:01:51.654Z,3.13
2022-09-16T23:04:18.258Z,3.00
2022-09-16T23:06:44.902Z,3.30
2022-09-16T23:09:12.597Z,2.97
2022-09-16T23:11:39.441Z,3.23
2022-09-16T23:14:06.523Z,3.30
2022-09-16T23:16:35.803Z,3.13
2022-09-16T23:19:05.075Z,3.17
2022-09-16T23:21:32.652Z,3.20
2022-09-16T23:24:01.227Z,3.30
2022-09-16T23:26:33.177Z,3.50
2022-09-16T23:29:00.856Z,3.20
2022-09-16T23:31:32.213Z,3.20
2022-09-16T23:33:58.927Z,2.87
2022-09-16T23:36:26.372Z,2.80
2022-09-16T23:38:53.799Z,2.80
2022-09-16T23:41:23.682Z,2.97
2022-09-16T23:43:50.833Z,3.10
2022-09-16T23:46:19.773Z,2.97
2022-09-16T23:48:47.260Z,2.70
2022-09-16T23:51:14.039Z,3.20
2022-09-16T23:53:42.400Z,2.83
2022-09-16T23:56:10.787Z,2.63
2022-09-16T23:58:37.378Z,2.70
